sensor_id;sensor_type;location;lat;lon;timestamp;temperature;humidity
61004;DHT22;46889;37.310;13.582;2024-01-27T00:01:59;11.00;99.90
61004;DHT22;46889;37.310;13.582;2024-01-27T00:04:25;11.00;99.90
61004;DHT22;46889;37.310;13.582;2024-01-27T00:06:51;11.00;99.90
61004;DHT22;46889;37.310;13.582;2024-01-27T00:09:16;11.00;99.90
61004;DHT22;46889;37.310;13.582;2024-01-27T00:11:42;10.90;99.90
61004;DHT22;46889;37.310;13.582;2024-01-27T00:14:08;10.90;99.90
61004;DHT22;46889;37.310;13.582;2024-01-27T00:16:34;10.90;99.90
61004;DHT22;46889;37.310;13.582;2024-01-27T00:19:00;10.90;99.90
61004;DHT22;46889;37.310;13.582;2024-01-27T00:21:26;10.90;99.90
61004;DHT22;46889;37.310;13.582;2024-01-27T00:23:51;11.00;99.90
61004;DHT22;46889;37.310;13.582;2024-01-27T00:26:17;11.00;99.90
61004;DHT22;46889;37.310;13.582;2024-01-27T00:28:43;11.00;99.90
61004;DHT22;46889;37.310;13.582;2024-01-27T00:31:09;11.10;99.90
61004;DHT22;46889;37.310;13.582;2024-01-27T00:33:34;11.10;99.90
61004;DHT22;46889;37.310;13.582;2024-01-27T00:36:01;11.10;99.90
61004;DHT22;46889;37.310;13.582;2024-01-27T00:38:27;11.10;99.90
61004;DHT22;46889;37.310;13.582;2024-01-27T00:40:53;11.10;99.90
61004;DHT22;46889;37.310;13.582;2024-01-27T00:43:19;11.10;99.90
61004;DHT22;46889;37.310;13.582;2024-01-27T00:45:45;11.00;99.90
61004;DHT22;46889;37.310;13.582;2024-01-27T00:48:11;11.00;99.90
61004;DHT22;46889;37.310;13.582;2024-01-27T00:50:36;10.90;99.90
61004;DHT22;46889;37.310;13.582;2024-01-27T00:53:06;10.90;99.90
61004;DHT22;46889;37.310;13.582;2024-01-27T00:55:33;10.90;99.90
61004;DHT22;46889;37.310;13.582;2024-01-27T00:57:59;10.90;99.90
61004;DHT22;46889;37.310;13.582;2024-01-27T01:00:25;10.80;99.90
61004;DHT22;46889;37.310;13.582;2024-01-27T01:02:51;10.80;99.90
61004;DHT22;46889;37.310;13.582;2024-01-27T01:05:17;10.80;99.90
61004;DHT22;46889;37.310;13.582;2024-01-27T01:07:42;10.80;99.90
61004;DHT22;46889;37.310;13.582;2024-01-27T01:10:08;10.70;99.90
61004;DHT22;46889;37.310;13.582;2024-01-27T01:12:34;10.80;99.90
61004;DHT22;46889;37.310;13.582;2024-01-27T01:15:00;10.80;99.90
61004;DHT22;46889;37.310;13.582;2024-01-27T01:17:26;10.80;99.90
61004;DHT22;46889;37.310;13.582;2024-01-27T01:19:54;10.80;99.90
61004;DHT22;46889;37.310;13.582;2024-01-27T01:22:21;10.90;99.90
61004;DHT22;46889;37.310;13.582;2024-01-27T01:24:47;11.00;99.90
61004;DHT22;46889;37.310;13.582;2024-01-27T01:27:13;10.90;99.90
61004;DHT22;46889;37.310;13.582;2024-01-27T01:29:39;10.90;99.90
61004;DHT22;46889;37.310;13.582;2024-01-27T01:32:09;10.80;99.90
61004;DHT22;46889;37.310;13.582;2024-01-27T01:34:34;10.80;99.90
61004;DHT22;46889;37.310;13.582;2024-01-27T01:37:01;10.80;99.90
61004;DHT22;46889;37.310;13.582;2024-01-27T01:39:28;10.90;99.90
61004;DHT22;46889;37.310;13.582;2024-01-27T01:41:55;10.90;99.90
61004;DHT22;46889;37.310;13.582;2024-01-27T01:44:21;10.90;99.90
61004;DHT22;46889;37.310;13.582;2024-01-27T01:46:47;10.90;99.90
61004;DHT22;46889;37.310;13.582;2024-01-27T01:49:14;10.80;99.90
61004;DHT22;46889;37.310;13.582;2024-01-27T01:51:40;10.80;99.90
61004;DHT22;46889;37.310;13.582;2024-01-27T01:54:08;10.80;99.90
61004;DHT22;46889;37.310;13.582;2024-01-27T01:56:34;10.80;99.90
61004;DHT22;46889;37.310;13.582;2024-01-27T01:59:00;10.80;99.90
61004;DHT22;46889;37.310;13.582;2024-01-27T02:01:25;10.80;99.90
61004;DHT22;46889;37.310;13.582;2024-01-27T02:03:52;10.80;99.90
61004;DHT22;46889;37.310;13.582;2024-01-27T02:06:19;10.80;99.90
61004;DHT22;46889;37.310;13.582;2024-01-27T02:08:45;10.70;99.90
61004;DHT22;46889;37.310;13.582;2024-01-27T02:11:10;10.70;99.90
61004;DHT22;46889;37.310;13.582;2024-01-27T02:13:36;10.70;99.90
61004;DHT22;46889;37.310;13.582;2024-01-27T02:16:02;10.60;99.90
61004;DHT22;46889;37.310;13.582;2024-01-27T02:18:28;10.60;99.90
61004;DHT22;46889;37.310;13.582;2024-01-27T02:20:54;10.60;99.90
61004;DHT22;46889;37.310;13.582;2024-01-27T02:23:19;10.60;99.90
61004;DHT22;46889;37.310;13.582;2024-01-27T02:25:45;10.60;99.90
61004;DHT22;46889;37.310;13.582;2024-01-27T02:28:11;10.60;99.90
61004;DHT22;46889;37.310;13.582;2024-01-27T02:30:38;10.70;99.90
61004;DHT22;46889;37.310;13.582;2024-01-27T02:33:04;10.60;99.90
61004;DHT22;46889;37.310;13.582;2024-01-27T02:35:30;10.60;99.90
61004;DHT22;46889;37.310;13.582;2024-01-27T02:37:56;10.60;99.90
61004;DHT22;46889;37.310;13.582;2024-01-27T02:40:22;10.50;99.90
61004;DHT22;46889;37.310;13.582;2024-01-27T02:42:48;10.50;99.90
61004;DHT22;46889;37.310;13.582;2024-01-27T02:45:14;10.60;99.90
61004;DHT22;46889;37.310;13.582;2024-01-27T02:47:40;10.60;99.90
61004;DHT22;46889;37.310;13.582;2024-01-27T02:50:06;10.50;99.90
61004;DHT22;46889;37.310;13.582;2024-01-27T02:52:32;10.50;99.90
61004;DHT22;46889;37.310;13.582;2024-01-27T02:55:01;10.50;99.90
61004;DHT22;46889;37.310;13.582;2024-01-27T02:57:27;10.50;99.90
61004;DHT22;46889;37.310;13.582;2024-01-27T02:59:54;10.40;99.90
61004;DHT22;46889;37.310;13.582;2024-01-27T03:02:20;10.40;99.90
61004;DHT22;46889;37.310;13.582;2024-01-27T03:04:46;10.40;99.90
61004;DHT22;46889;37.310;13.582;2024-01-27T03:07:11;10.40;99.90
61004;DHT22;46889;37.310;13.582;2024-01-27T03:09:39;10.40;99.90
61004;DHT22;46889;37.310;13.582;2024-01-27T03:12:04;10.40;99.90
61004;DHT22;46889;37.310;13.582;2024-01-27T03:14:30;10.40;99.90
61004;DHT22;46889;37.310;13.582;2024-01-27T03:16:56;10.40;99.90
61004;DHT22;46889;37.310;13.582;2024-01-27T03:19:22;10.40;99.90
61004;DHT22;46889;37.310;13.582;2024-01-27T03:21:48;10.50;99.90
61004;DHT22;46889;37.310;13.582;2024-01-27T03:24:13;10.40;99.90
61004;DHT22;46889;37.310;13.582;2024-01-27T03:26:39;10.40;99.90
61004;DHT22;46889;37.310;13.582;2024-01-27T03:29:05;10.40;99.90
61004;DHT22;46889;37.310;13.582;2024-01-27T03:31:31;10.50;99.90
61004;DHT22;46889;37.310;13.582;2024-01-27T03:34:01;10.50;99.90
61004;DHT22;46889;37.310;13.582;2024-01-27T03:36:27;10.50;99.90
61004;DHT22;46889;37.310;13.582;2024-01-27T03:38:52;10.50;99.90
61004;DHT22;46889;37.310;13.582;2024-01-27T03:41:19;10.50;99.90
61004;DHT22;46889;37.310;13.582;2024-01-27T03:43:44;10.60;99.90
61004;DHT22;46889;37.310;13.582;2024-01-27T03:46:10;10.60;99.90
61004;DHT22;46889;37.310;13.582;2024-01-27T03:48:36;10.60;99.90
61004;DHT22;46889;37.310;13.582;2024-01-27T03:51:02;10.60;99.90
61004;DHT22;46889;37.310;13.582;2024-01-27T03:53:28;10.60;99.90
61004;DHT22;46889;37.310;13.582;2024-01-27T03:55:54;10.70;99.90
61004;DHT22;46889;37.310;13.582;2024-01-27T03:58:20;10.70;99.90
61004;DHT22;46889;37.310;13.582;2024-01-27T04:00:46;10.70;99.90
61004;DHT22;46889;37.310;13.582;2024-01-27T04:03:11;10.70;99.90
61004;DHT22;46889;37.310;13.582;2024-01-27T04:05:37;10.80;99.90
61004;DHT22;46889;37.310;13.582;2024-01-27T04:08:06;10.70;99.90
61004;DHT22;46889;37.310;13.582;2024-01-27T04:10:32;10.70;99.90
61004;DHT22;46889;37.310;13.582;2024-01-27T04:12:58;10.70;99.90
61004;DHT22;46889;37.310;13.582;2024-01-27T04:15:23;10.60;99.90
61004;DHT22;46889;37.310;13.582;2024-01-27T04:17:49;10.70;99.90
61004;DHT22;46889;37.310;13.582;2024-01-27T04:20:16;10.70;99.90
61004;DHT22;46889;37.310;13.582;2024-01-27T04:22:41;10.70;99.90
61004;DHT22;46889;37.310;13.582;2024-01-27T04:25:07;10.70;99.90
61004;DHT22;46889;37.310;13.582;2024-01-27T04:27:36;10.70;99.90
61004;DHT22;46889;37.310;13.582;2024-01-27T04:30:03;10.70;99.90
61004;DHT22;46889;37.310;13.582;2024-01-27T04:32:29;10.60;99.90
61004;DHT22;46889;37.310;13.582;2024-01-27T04:34:54;10.60;99.90
61004;DHT22;46889;37.310;13.582;2024-01-27T04:37:20;10.60;99.90
61004;DHT22;46889;37.310;13.582;2024-01-27T04:39:46;10.70;99.90
61004;DHT22;46889;37.310;13.582;2024-01-27T04:42:12;10.70;99.90
61004;DHT22;46889;37.310;13.582;2024-01-27T04:44:39;10.70;99.90
61004;DHT22;46889;37.310;13.582;2024-01-27T04:47:06;10.70;99.90
61004;DHT22;46889;37.310;13.582;2024-01-27T04:49:33;10.80;99.90
61004;DHT22;46889;37.310;13.582;2024-01-27T04:51:59;10.70;99.90
61004;DHT22;46889;37.310;13.582;2024-01-27T04:54:25;10.70;99.90
61004;DHT22;46889;37.310;13.582;2024-01-27T04:56:51;10.80;99.90
61004;DHT22;46889;37.310;13.582;2024-01-27T04:59:17;10.80;99.90
61004;DHT22;46889;37.310;13.582;2024-01-27T05:01:45;10.80;99.90
61004;DHT22;46889;37.310;13.582;2024-01-27T05:04:12;10.90;99.90
61004;DHT22;46889;37.310;13.582;2024-01-27T05:06:37;11.00;99.90
61004;DHT22;46889;37.310;13.582;2024-01-27T05:09:06;11.00;99.90
61004;DHT22;46889;37.310;13.582;2024-01-27T05:11:32;11.10;99.90
61004;DHT22;46889;37.310;13.582;2024-01-27T05:13:59;11.10;99.90
61004;DHT22;46889;37.310;13.582;2024-01-27T05:16:25;11.10;99.90
61004;DHT22;46889;37.310;13.582;2024-01-27T05:18:51;11.20;99.90
61004;DHT22;46889;37.310;13.582;2024-01-27T05:21:18;11.20;99.90
61004;DHT22;46889;37.310;13.582;2024-01-27T05:23:44;11.20;99.90
61004;DHT22;46889;37.310;13.582;2024-01-27T05:26:09;11.20;99.90
61004;DHT22;46889;37.310;13.582;2024-01-27T05:28:39;11.20;99.90
61004;DHT22;46889;37.310;13.582;2024-01-27T05:31:08;11.30;99.90
61004;DHT22;46889;37.310;13.582;2024-01-27T05:33:35;11.30;99.90
61004;DHT22;46889;37.310;13.582;2024-01-27T05:36:00;11.40;99.90
61004;DHT22;46889;37.310;13.582;2024-01-27T05:38:26;11.40;99.90
61004;DHT22;46889;37.310;13.582;2024-01-27T05:40:53;11.30;99.90
61004;DHT22;46889;37.310;13.582;2024-01-27T05:43:19;11.30;99.90
61004;DHT22;46889;37.310;13.582;2024-01-27T05:45:45;11.30;99.90
61004;DHT22;46889;37.310;13.582;2024-01-27T05:48:11;11.30;99.90
61004;DHT22;46889;37.310;13.582;2024-01-27T05:50:39;11.30;99.90
61004;DHT22;46889;37.310;13.582;2024-01-27T05:53:06;11.20;99.90
61004;DHT22;46889;37.310;13.582;2024-01-27T05:55:32;11.20;99.90
61004;DHT22;46889;37.310;13.582;2024-01-27T05:57:59;11.20;99.90
61004;DHT22;46889;37.310;13.582;2024-01-27T06:00:25;11.20;99.90
61004;DHT22;46889;37.310;13.582;2024-01-27T06:02:51;11.20;99.90
61004;DHT22;46889;37.310;13.582;2024-01-27T06:05:17;11.20;99.90
61004;DHT22;46889;37.310;13.582;2024-01-27T06:07:42;11.20;99.90
61004;DHT22;46889;37.310;13.582;2024-01-27T06:10:09;11.10;99.90
61004;DHT22;46889;37.310;13.582;2024-01-27T06:12:35;11.10;99.90
61004;DHT22;46889;37.310;13.582;2024-01-27T06:15:03;11.10;99.90
61004;DHT22;46889;37.310;13.582;2024-01-27T06:17:31;11.10;99.90
61004;DHT22;46889;37.310;13.582;2024-01-27T06:20:03;11.20;99.90
61004;DHT22;46889;37.310;13.582;2024-01-27T06:22:29;11.10;99.90
61004;DHT22;46889;37.310;13.582;2024-01-27T06:24:58;11.20;99.90
61004;DHT22;46889;37.310;13.582;2024-01-27T06:27:24;11.20;99.90
61004;DHT22;46889;37.310;13.582;2024-01-27T06:29:50;11.10;99.90
61004;DHT22;46889;37.310;13.582;2024-01-27T06:32:15;11.00;99.90
61004;DHT22;46889;37.310;13.582;2024-01-27T06:34:41;10.90;99.90
61004;DHT22;46889;37.310;13.582;2024-01-27T06:37:07;10.90;99.90
61004;DHT22;46889;37.310;13.582;2024-01-27T06:39:33;10.90;99.90
61004;DHT22;46889;37.310;13.582;2024-01-27T06:41:59;11.20;99.90
61004;DHT22;46889;37.310;13.582;2024-01-27T06:44:24;11.40;99.90
61004;DHT22;46889;37.310;13.582;2024-01-27T06:46:50;11.70;99.90
61004;DHT22;46889;37.310;13.582;2024-01-27T06:49:16;11.90;99.90
61004;DHT22;46889;37.310;13.582;2024-01-27T06:51:43;12.10;99.90
61004;DHT22;46889;37.310;13.582;2024-01-27T06:54:09;12.20;99.90
61004;DHT22;46889;37.310;13.582;2024-01-27T06:56:34;12.20;99.90
61004;DHT22;46889;37.310;13.582;2024-01-27T06:59:00;12.50;99.90
61004;DHT22;46889;37.310;13.582;2024-01-27T07:01:26;13.00;99.90
61004;DHT22;46889;37.310;13.582;2024-01-27T07:03:52;13.50;99.90
61004;DHT22;46889;37.310;13.582;2024-01-27T07:06:17;13.80;99.90
61004;DHT22;46889;37.310;13.582;2024-01-27T07:08:43;14.40;99.90
61004;DHT22;46889;37.310;13.582;2024-01-27T07:11:09;15.00;99.90
61004;DHT22;46889;37.310;13.582;2024-01-27T07:13:35;15.10;99.90
61004;DHT22;46889;37.310;13.582;2024-01-27T07:16:01;14.90;99.90
61004;DHT22;46889;37.310;13.582;2024-01-27T07:18:28;15.10;99.90
61004;DHT22;46889;37.310;13.582;2024-01-27T07:20:54;15.20;99.90
61004;DHT22;46889;37.310;13.582;2024-01-27T07:23:20;15.30;99.90
61004;DHT22;46889;37.310;13.582;2024-01-27T07:25:47;15.60;99.90
61004;DHT22;46889;37.310;13.582;2024-01-27T07:28:12;15.20;99.90
61004;DHT22;46889;37.310;13.582;2024-01-27T07:30:41;15.10;99.90
61004;DHT22;46889;37.310;13.582;2024-01-27T07:33:07;15.30;99.90
61004;DHT22;46889;37.310;13.582;2024-01-27T07:35:33;15.50;99.90
61004;DHT22;46889;37.310;13.582;2024-01-27T07:37:58;15.40;99.90
61004;DHT22;46889;37.310;13.582;2024-01-27T07:40:24;15.20;99.90
61004;DHT22;46889;37.310;13.582;2024-01-27T07:42:50;15.40;99.90
61004;DHT22;46889;37.310;13.582;2024-01-27T07:45:16;15.90;99.90
61004;DHT22;46889;37.310;13.582;2024-01-27T07:47:42;16.20;99.90
61004;DHT22;46889;37.310;13.582;2024-01-27T07:50:08;16.30;99.90
61004;DHT22;46889;37.310;13.582;2024-01-27T07:52:35;16.40;99.90
61004;DHT22;46889;37.310;13.582;2024-01-27T07:55:01;16.70;99.90
61004;DHT22;46889;37.310;13.582;2024-01-27T07:57:27;16.40;99.90
61004;DHT22;46889;37.310;13.582;2024-01-27T07:59:53;16.00;99.90
61004;DHT22;46889;37.310;13.582;2024-01-27T08:02:20;15.70;99.90
61004;DHT22;46889;37.310;13.582;2024-01-27T08:04:45;15.50;99.90
61004;DHT22;46889;37.310;13.582;2024-01-27T08:07:11;15.00;99.90
61004;DHT22;46889;37.310;13.582;2024-01-27T08:09:40;14.80;99.90
61004;DHT22;46889;37.310;13.582;2024-01-27T08:12:07;14.80;99.90
61004;DHT22;46889;37.310;13.582;2024-01-27T08:14:34;14.90;99.90
61004;DHT22;46889;37.310;13.582;2024-01-27T08:17:00;14.90;99.90
61004;DHT22;46889;37.310;13.582;2024-01-27T08:19:30;14.80;99.90
61004;DHT22;46889;37.310;13.582;2024-01-27T08:21:56;14.70;99.90
61004;DHT22;46889;37.310;13.582;2024-01-27T08:24:22;14.70;99.90
61004;DHT22;46889;37.310;13.582;2024-01-27T08:26:49;14.80;99.90
61004;DHT22;46889;37.310;13.582;2024-01-27T08:29:15;14.90;99.90
61004;DHT22;46889;37.310;13.582;2024-01-27T08:31:41;14.80;99.90
61004;DHT22;46889;37.310;13.582;2024-01-27T08:34:07;14.80;99.90
61004;DHT22;46889;37.310;13.582;2024-01-27T08:36:33;15.00;99.90
61004;DHT22;46889;37.310;13.582;2024-01-27T08:38:59;15.00;99.90
61004;DHT22;46889;37.310;13.582;2024-01-27T08:41:25;15.00;99.90
61004;DHT22;46889;37.310;13.582;2024-01-27T08:43:52;14.90;99.90
61004;DHT22;46889;37.310;13.582;2024-01-27T08:46:18;15.10;99.90
61004;DHT22;46889;37.310;13.582;2024-01-27T08:48:46;15.10;99.90
61004;DHT22;46889;37.310;13.582;2024-01-27T08:51:12;15.10;99.90
61004;DHT22;46889;37.310;13.582;2024-01-27T08:53:38;15.30;99.90
61004;DHT22;46889;37.310;13.582;2024-01-27T08:56:04;15.50;99.90
61004;DHT22;46889;37.310;13.582;2024-01-27T08:58:31;15.80;99.90
61004;DHT22;46889;37.310;13.582;2024-01-27T09:00:57;16.10;99.90
61004;DHT22;46889;37.310;13.582;2024-01-27T09:03:31;16.30;99.90
61004;DHT22;46889;37.310;13.582;2024-01-27T09:05:56;16.20;99.90
61004;DHT22;46889;37.310;13.582;2024-01-27T09:08:22;16.00;99.90
61004;DHT22;46889;37.310;13.582;2024-01-27T09:10:48;16.10;99.90
61004;DHT22;46889;37.310;13.582;2024-01-27T09:13:14;16.10;99.90
61004;DHT22;46889;37.310;13.582;2024-01-27T09:15:40;16.30;99.90
61004;DHT22;46889;37.310;13.582;2024-01-27T09:18:05;16.30;99.90
61004;DHT22;46889;37.310;13.582;2024-01-27T09:20:31;16.30;99.90
61004;DHT22;46889;37.310;13.582;2024-01-27T09:22:58;16.40;99.90
61004;DHT22;46889;37.310;13.582;2024-01-27T09:25:23;16.60;99.90
61004;DHT22;46889;37.310;13.582;2024-01-27T09:27:52;16.50;99.90
61004;DHT22;46889;37.310;13.582;2024-01-27T09:30:18;16.40;99.90
61004;DHT22;46889;37.310;13.582;2024-01-27T09:32:43;16.40;99.90
61004;DHT22;46889;37.310;13.582;2024-01-27T09:35:09;16.40;99.90
61004;DHT22;46889;37.310;13.582;2024-01-27T09:37:35;16.50;99.90
61004;DHT22;46889;37.310;13.582;2024-01-27T09:40:01;16.40;99.90
61004;DHT22;46889;37.310;13.582;2024-01-27T09:42:28;16.20;99.90
61004;DHT22;46889;37.310;13.582;2024-01-27T09:44:54;15.90;99.90
61004;DHT22;46889;37.310;13.582;2024-01-27T09:47:23;16.00;99.90
61004;DHT22;46889;37.310;13.582;2024-01-27T09:49:49;15.90;99.90
61004;DHT22;46889;37.310;13.582;2024-01-27T09:52:16;16.00;99.90
61004;DHT22;46889;37.310;13.582;2024-01-27T09:54:42;16.10;99.90
61004;DHT22;46889;37.310;13.582;2024-01-27T09:57:08;16.10;99.90
61004;DHT22;46889;37.310;13.582;2024-01-27T09:59:34;16.00;99.90
61004;DHT22;46889;37.310;13.582;2024-01-27T10:02:00;15.80;99.90
61004;DHT22;46889;37.310;13.582;2024-01-27T10:04:28;15.90;99.90
61004;DHT22;46889;37.310;13.582;2024-01-27T10:06:54;16.10;99.90
61004;DHT22;46889;37.310;13.582;2024-01-27T10:09:22;16.10;99.90
61004;DHT22;46889;37.310;13.582;2024-01-27T10:11:47;16.10;99.90
61004;DHT22;46889;37.310;13.582;2024-01-27T10:14:13;16.30;99.90
61004;DHT22;46889;37.310;13.582;2024-01-27T10:16:43;16.40;99.90
61004;DHT22;46889;37.310;13.582;2024-01-27T10:19:14;16.50;99.90
61004;DHT22;46889;37.310;13.582;2024-01-27T10:21:41;16.60;99.90
61004;DHT22;46889;37.310;13.582;2024-01-27T10:24:07;16.60;99.90
61004;DHT22;46889;37.310;13.582;2024-01-27T10:26:33;16.70;99.90
61004;DHT22;46889;37.310;13.582;2024-01-27T10:29:00;16.70;99.90
61004;DHT22;46889;37.310;13.582;2024-01-27T10:31:27;16.70;99.90
61004;DHT22;46889;37.310;13.582;2024-01-27T10:33:54;17.00;99.90
61004;DHT22;46889;37.310;13.582;2024-01-27T10:36:20;16.90;99.90
61004;DHT22;46889;37.310;13.582;2024-01-27T10:38:46;16.70;99.90
61004;DHT22;46889;37.310;13.582;2024-01-27T10:41:12;16.70;99.90
61004;DHT22;46889;37.310;13.582;2024-01-27T10:43:40;16.80;99.90
61004;DHT22;46889;37.310;13.582;2024-01-27T10:46:06;17.10;99.90
61004;DHT22;46889;37.310;13.582;2024-01-27T10:48:36;17.50;99.90
61004;DHT22;46889;37.310;13.582;2024-01-27T10:51:08;17.80;99.90
61004;DHT22;46889;37.310;13.582;2024-01-27T10:53:36;17.90;99.90
61004;DHT22;46889;37.310;13.582;2024-01-27T10:56:03;18.10;99.90
61004;DHT22;46889;37.310;13.582;2024-01-27T10:58:32;18.00;99.90
61004;DHT22;46889;37.310;13.582;2024-01-27T11:01:00;17.60;99.90
61004;DHT22;46889;37.310;13.582;2024-01-27T11:03:27;17.80;99.90
61004;DHT22;46889;37.310;13.582;2024-01-27T11:05:54;17.90;99.90
61004;DHT22;46889;37.310;13.582;2024-01-27T11:08:20;17.90;99.90
61004;DHT22;46889;37.310;13.582;2024-01-27T11:10:49;18.10;99.90
61004;DHT22;46889;37.310;13.582;2024-01-27T11:13:17;18.30;99.90
61004;DHT22;46889;37.310;13.582;2024-01-27T11:15:53;18.40;99.90
61004;DHT22;46889;37.310;13.582;2024-01-27T11:18:19;18.40;99.90
61004;DHT22;46889;37.310;13.582;2024-01-27T11:20:45;18.60;99.90
61004;DHT22;46889;37.310;13.582;2024-01-27T11:23:12;18.80;99.90
61004;DHT22;46889;37.310;13.582;2024-01-27T11:25:39;18.70;99.90
61004;DHT22;46889;37.310;13.582;2024-01-27T11:28:12;18.50;99.90
61004;DHT22;46889;37.310;13.582;2024-01-27T11:30:47;18.50;99.90
61004;DHT22;46889;37.310;13.582;2024-01-27T11:33:13;18.60;99.90
61004;DHT22;46889;37.310;13.582;2024-01-27T11:35:39;18.70;99.90
61004;DHT22;46889;37.310;13.582;2024-01-27T11:38:05;18.90;99.90
61004;DHT22;46889;37.310;13.582;2024-01-27T11:40:31;18.90;99.90
61004;DHT22;46889;37.310;13.582;2024-01-27T11:43:02;19.10;99.90
61004;DHT22;46889;37.310;13.582;2024-01-27T11:45:28;19.00;99.90
61004;DHT22;46889;37.310;13.582;2024-01-27T11:47:58;19.10;99.90
61004;DHT22;46889;37.310;13.582;2024-01-27T11:50:25;19.00;99.90
61004;DHT22;46889;37.310;13.582;2024-01-27T11:52:51;19.00;99.90
61004;DHT22;46889;37.310;13.582;2024-01-27T11:55:17;18.90;99.90
61004;DHT22;46889;37.310;13.582;2024-01-27T11:57:44;18.90;99.90
61004;DHT22;46889;37.310;13.582;2024-01-27T12:00:10;18.80;99.90
61004;DHT22;46889;37.310;13.582;2024-01-27T12:02:39;18.90;99.90
61004;DHT22;46889;37.310;13.582;2024-01-27T12:05:05;19.10;99.90
61004;DHT22;46889;37.310;13.582;2024-01-27T12:07:31;19.20;99.90
61004;DHT22;46889;37.310;13.582;2024-01-27T12:09:57;19.30;99.90
61004;DHT22;46889;37.310;13.582;2024-01-27T12:12:23;19.20;99.90
61004;DHT22;46889;37.310;13.582;2024-01-27T12:14:49;19.00;99.90
61004;DHT22;46889;37.310;13.582;2024-01-27T12:17:15;18.90;99.90
61004;DHT22;46889;37.310;13.582;2024-01-27T12:19:48;18.70;99.90
61004;DHT22;46889;37.310;13.582;2024-01-27T12:22:27;18.60;99.90
61004;DHT22;46889;37.310;13.582;2024-01-27T12:25:09;18.70;99.90
61004;DHT22;46889;37.310;13.582;2024-01-27T12:27:35;18.80;99.90
61004;DHT22;46889;37.310;13.582;2024-01-27T12:30:01;18.60;99.90
61004;DHT22;46889;37.310;13.582;2024-01-27T12:32:27;18.50;99.90
61004;DHT22;46889;37.310;13.582;2024-01-27T12:34:54;18.60;99.90
61004;DHT22;46889;37.310;13.582;2024-01-27T12:37:26;18.70;99.90
61004;DHT22;46889;37.310;13.582;2024-01-27T12:39:51;18.90;99.90
61004;DHT22;46889;37.310;13.582;2024-01-27T12:42:17;19.00;99.90
61004;DHT22;46889;37.310;13.582;2024-01-27T12:44:44;19.00;99.90
61004;DHT22;46889;37.310;13.582;2024-01-27T12:47:09;19.00;99.90
61004;DHT22;46889;37.310;13.582;2024-01-27T12:49:35;18.90;99.90
61004;DHT22;46889;37.310;13.582;2024-01-27T12:52:02;18.90;99.90
61004;DHT22;46889;37.310;13.582;2024-01-27T12:54:28;19.00;99.90
61004;DHT22;46889;37.310;13.582;2024-01-27T12:56:56;19.10;99.90
61004;DHT22;46889;37.310;13.582;2024-01-27T12:59:24;18.90;99.90
61004;DHT22;46889;37.310;13.582;2024-01-27T13:01:51;18.90;99.90
61004;DHT22;46889;37.310;13.582;2024-01-27T13:04:18;19.00;99.90
61004;DHT22;46889;37.310;13.582;2024-01-27T13:06:44;18.80;99.90
61004;DHT22;46889;37.310;13.582;2024-01-27T13:09:10;19.00;99.90
61004;DHT22;46889;37.310;13.582;2024-01-27T13:11:39;19.10;99.90
61004;DHT22;46889;37.310;13.582;2024-01-27T13:14:05;19.00;99.90
61004;DHT22;46889;37.310;13.582;2024-01-27T13:16:32;19.00;99.90
61004;DHT22;46889;37.310;13.582;2024-01-27T13:18:58;19.10;99.90
61004;DHT22;46889;37.310;13.582;2024-01-27T13:21:24;19.10;99.90
61004;DHT22;46889;37.310;13.582;2024-01-27T13:23:50;19.00;99.90
61004;DHT22;46889;37.310;13.582;2024-01-27T13:26:18;19.00;99.90
61004;DHT22;46889;37.310;13.582;2024-01-27T13:28:44;19.00;99.90
61004;DHT22;46889;37.310;13.582;2024-01-27T13:31:09;18.70;99.90
61004;DHT22;46889;37.310;13.582;2024-01-27T13:33:35;18.60;99.90
61004;DHT22;46889;37.310;13.582;2024-01-27T13:36:01;18.70;99.90
61004;DHT22;46889;37.310;13.582;2024-01-27T13:38:27;18.80;99.90
61004;DHT22;46889;37.310;13.582;2024-01-27T13:40:54;18.80;99.90
61004;DHT22;46889;37.310;13.582;2024-01-27T13:43:20;18.90;99.90
61004;DHT22;46889;37.310;13.582;2024-01-27T13:45:46;18.90;99.90
61004;DHT22;46889;37.310;13.582;2024-01-27T13:48:13;18.90;99.90
61004;DHT22;46889;37.310;13.582;2024-01-27T13:50:39;18.90;99.90
61004;DHT22;46889;37.310;13.582;2024-01-27T13:53:05;18.80;99.90
61004;DHT22;46889;37.310;13.582;2024-01-27T13:55:31;18.70;99.90
61004;DHT22;46889;37.310;13.582;2024-01-27T13:57:57;18.70;99.90
61004;DHT22;46889;37.310;13.582;2024-01-27T14:00:23;18.70;99.90
61004;DHT22;46889;37.310;13.582;2024-01-27T14:02:49;18.70;99.90
61004;DHT22;46889;37.310;13.582;2024-01-27T14:05:15;18.80;99.90
61004;DHT22;46889;37.310;13.582;2024-01-27T14:07:40;18.80;99.90
61004;DHT22;46889;37.310;13.582;2024-01-27T14:10:06;18.70;99.90
61004;DHT22;46889;37.310;13.582;2024-01-27T14:12:32;18.60;99.90
61004;DHT22;46889;37.310;13.582;2024-01-27T14:15:02;18.50;99.90
61004;DHT22;46889;37.310;13.582;2024-01-27T14:17:32;18.50;99.90
61004;DHT22;46889;37.310;13.582;2024-01-27T14:19:59;18.40;99.90
61004;DHT22;46889;37.310;13.582;2024-01-27T14:22:25;18.50;99.90
61004;DHT22;46889;37.310;13.582;2024-01-27T14:24:51;18.50;99.90
61004;DHT22;46889;37.310;13.582;2024-01-27T14:27:17;18.50;99.90
61004;DHT22;46889;37.310;13.582;2024-01-27T14:29:46;18.40;99.90
61004;DHT22;46889;37.310;13.582;2024-01-27T14:32:13;18.40;99.90
61004;DHT22;46889;37.310;13.582;2024-01-27T14:34:40;18.30;99.90
61004;DHT22;46889;37.310;13.582;2024-01-27T14:37:06;18.20;99.90
61004;DHT22;46889;37.310;13.582;2024-01-27T14:39:33;18.00;99.90
61004;DHT22;46889;37.310;13.582;2024-01-27T14:42:01;18.00;99.90
61004;DHT22;46889;37.310;13.582;2024-01-27T14:44:32;18.10;99.90
61004;DHT22;46889;37.310;13.582;2024-01-27T14:47:03;18.30;99.90
61004;DHT22;46889;37.310;13.582;2024-01-27T14:49:28;18.30;99.90
61004;DHT22;46889;37.310;13.582;2024-01-27T14:51:55;18.20;99.90
61004;DHT22;46889;37.310;13.582;2024-01-27T14:54:24;18.30;99.90
61004;DHT22;46889;37.310;13.582;2024-01-27T14:56:52;18.30;99.90
61004;DHT22;46889;37.310;13.582;2024-01-27T14:59:17;18.40;99.90
61004;DHT22;46889;37.310;13.582;2024-01-27T15:01:44;18.40;99.90
61004;DHT22;46889;37.310;13.582;2024-01-27T15:04:14;18.10;99.90
61004;DHT22;46889;37.310;13.582;2024-01-27T15:06:41;18.00;99.90
61004;DHT22;46889;37.310;13.582;2024-01-27T15:09:07;18.00;99.90
61004;DHT22;46889;37.310;13.582;2024-01-27T15:11:33;18.00;99.90